sensor_id;sensor_type;location;lat;lon;timestamp;P1;durP1;ratioP1;P2;durP2;ratioP2
13592;SDS011;6867;50.998;4.250;2022-08-01T00:01:08;10.40;;;3.53;;
13592;SDS011;6867;50.998;4.250;2022-08-01T00:03:37;5.20;;;3.28;;
13592;SDS011;6867;50.998;4.250;2022-08-01T00:06:04;5.30;;;3.78;;
13592;SDS011;6867;50.998;4.250;2022-08-01T00:08:31;6.50;;;3.47;;
13592;SDS011;6867;50.998;4.250;2022-08-01T00:10:58;5.63;;;3.47;;
13592;SDS011;6867;50.998;4.250;2022-08-01T00:13:24;4.63;;;4.15;;
13592;SDS011;6867;50.998;4.250;2022-08-01T00:15:51;6.72;;;4.07;;
13592;SDS011;6867;50.998;4.250;2022-08-01T00:18:19;9.20;;;3.95;;
13592;SDS011;6867;50.998;4.250;2022-08-01T00:20:46;5.38;;;3.83;;
13592;SDS011;6867;50.998;4.250;2022-08-01T00:23:13;6.40;;;4.18;;
13592;SDS011;6867;50.998;4.250;2022-08-01T00:25:39;7.85;;;4.07;;
13592;SDS011;6867;50.998;4.250;2022-08-01T00:28:06;4.65;;;3.97;;
13592;SDS011;6867;50.998;4.250;2022-08-01T00:30:33;5.70;;;3.92;;
13592;SDS011;6867;50.998;4.250;2022-08-01T00:33:00;4.32;;;3.88;;
13592;SDS011;6867;50.998;4.250;2022-08-01T00:35:28;7.43;;;3.63;;
13592;SDS011;6867;50.998;4.250;2022-08-01T00:37:55;5.65;;;4.00;;
13592;SDS011;6867;50.998;4.250;2022-08-01T00:40:22;7.78;;;3.97;;
13592;SDS011;6867;50.998;4.250;2022-08-01T00:42:49;5.47;;;4.15;;
13592;SDS011;6867;50.998;4.250;2022-08-01T00:45:15;7.03;;;4.03;;
13592;SDS011;6867;50.998;4.250;2022-08-01T00:47:42;6.00;;;4.00;;
13592;SDS011;6867;50.998;4.250;2022-08-01T00:50:09;4.93;;;3.70;;
13592;SDS011;6867;50.998;4.250;2022-08-01T00:52:38;4.85;;;3.60;;
13592;SDS011;6867;50.998;4.250;2022-08-01T00:55:06;5.40;;;4.10;;
13592;SDS011;6867;50.998;4.250;2022-08-01T00:57:34;8.27;;;4.43;;
13592;SDS011;6867;50.998;4.250;2022-08-01T01:00:01;5.43;;;4.25;;
13592;SDS011;6867;50.998;4.250;2022-08-01T01:02:28;11.40;;;6.65;;
13592;SDS011;6867;50.998;4.250;2022-08-01T01:04:55;9.05;;;6.45;;
13592;SDS011;6867;50.998;4.250;2022-08-01T01:07:24;11.70;;;7.15;;
13592;SDS011;6867;50.998;4.250;2022-08-01T01:10:00;15.52;;;7.90;;
13592;SDS011;6867;50.998;4.250;2022-08-01T01:12:33;14.50;;;7.15;;
13592;SDS011;6867;50.998;4.250;2022-08-01T01:15:04;12.10;;;7.53;;
13592;SDS011;6867;50.998;4.250;2022-08-01T01:17:36;11.57;;;7.80;;
13592;SDS011;6867;50.998;4.250;2022-08-01T01:20:05;16.30;;;8.25;;
13592;SDS011;6867;50.998;4.250;2022-08-01T01:22:42;14.82;;;8.75;;
13592;SDS011;6867;50.998;4.250;2022-08-01T01:25:19;16.67;;;7.80;;
13592;SDS011;6867;50.998;4.250;2022-08-01T01:28:08;18.70;;;8.57;;
13592;SDS011;6867;50.998;4.250;2022-08-01T01:30:43;16.17;;;8.45;;
13592;SDS011;6867;50.998;4.250;2022-08-01T01:33:12;19.10;;;8.90;;
13592;SDS011;6867;50.998;4.250;2022-08-01T01:35:41;14.25;;;8.13;;
13592;SDS011;6867;50.998;4.250;2022-08-01T01:38:14;17.15;;;8.20;;
13592;SDS011;6867;50.998;4.250;2022-08-01T01:40:45;19.80;;;7.82;;
13592;SDS011;6867;50.998;4.250;2022-08-01T01:43:14;15.30;;;7.93;;
13592;SDS011;6867;50.998;4.250;2022-08-01T01:45:44;13.65;;;7.82;;
13592;SDS011;6867;50.998;4.250;2022-08-01T01:48:13;14.10;;;7.63;;
13592;SDS011;6867;50.998;4.250;2022-08-01T01:50:43;17.08;;;8.15;;
13592;SDS011;6867;50.998;4.250;2022-08-01T01:53:12;15.45;;;8.07;;
13592;SDS011;6867;50.998;4.250;2022-08-01T01:55:43;15.40;;;7.93;;
13592;SDS011;6867;50.998;4.250;2022-08-01T01:58:13;14.75;;;8.60;;
13592;SDS011;6867;50.998;4.250;2022-08-01T02:00:40;15.88;;;8.20;;
13592;SDS011;6867;50.998;4.250;2022-08-01T02:03:11;14.63;;;8.57;;
13592;SDS011;6867;50.998;4.250;2022-08-01T02:05:40;14.45;;;8.02;;
13592;SDS011;6867;50.998;4.250;2022-08-01T02:08:08;15.52;;;7.90;;
13592;SDS011;6867;50.998;4.250;2022-08-01T02:10:38;15.40;;;8.15;;
13592;SDS011;6867;50.998;4.250;2022-08-01T02:13:06;19.80;;;9.23;;
13592;SDS011;6867;50.998;4.250;2022-08-01T02:15:34;12.98;;;7.47;;
13592;SDS011;6867;50.998;4.250;2022-08-01T02:18:05;14.75;;;7.80;;
13592;SDS011;6867;50.998;4.250;2022-08-01T02:20:34;20.40;;;9.02;;
13592;SDS011;6867;50.998;4.250;2022-08-01T02:23:05;15.10;;;8.38;;
13592;SDS011;6867;50.998;4.250;2022-08-01T02:25:36;15.27;;;8.00;;
13592;SDS011;6867;50.998;4.250;2022-08-01T02:28:06;19.98;;;8.70;;
13592;SDS011;6867;50.998;4.250;2022-08-01T02:30:37;18.75;;;9.68;;
13592;SDS011;6867;50.998;4.250;2022-08-01T02:33:08;15.25;;;9.07;;
13592;SDS011;6867;50.998;4.250;2022-08-01T02:35:38;17.35;;;9.25;;
13592;SDS011;6867;50.998;4.250;2022-08-01T02:38:09;18.05;;;8.98;;
13592;SDS011;6867;50.998;4.250;2022-08-01T02:40:39;19.67;;;8.35;;
13592;SDS011;6867;50.998;4.250;2022-08-01T02:43:09;18.88;;;10.00;;
13592;SDS011;6867;50.998;4.250;2022-08-01T02:45:39;13.73;;;8.05;;
13592;SDS011;6867;50.998;4.250;2022-08-01T02:48:14;13.82;;;8.88;;
13592;SDS011;6867;50.998;4.250;2022-08-01T02:50:44;16.40;;;10.57;;
13592;SDS011;6867;50.998;4.250;2022-08-01T02:53:13;20.92;;;10.15;;
13592;SDS011;6867;50.998;4.250;2022-08-01T02:55:42;16.60;;;9.70;;
13592;SDS011;6867;50.998;4.250;2022-08-01T02:58:12;15.88;;;9.90;;
13592;SDS011;6867;50.998;4.250;2022-08-01T03:00:42;15.38;;;9.35;;
13592;SDS011;6867;50.998;4.250;2022-08-01T03:03:11;19.35;;;10.30;;
13592;SDS011;6867;50.998;4.250;2022-08-01T03:05:41;18.45;;;10.43;;
13592;SDS011;6867;50.998;4.250;2022-08-01T03:08:10;19.85;;;9.80;;
13592;SDS011;6867;50.998;4.250;2022-08-01T03:10:39;23.65;;;11.63;;
13592;SDS011;6867;50.998;4.250;2022-08-01T03:13:08;21.88;;;11.40;;
13592;SDS011;6867;50.998;4.250;2022-08-01T03:15:37;17.48;;;10.35;;
13592;SDS011;6867;50.998;4.250;2022-08-01T03:18:06;20.90;;;10.70;;
13592;SDS011;6867;50.998;4.250;2022-08-01T03:20:36;18.65;;;9.95;;
13592;SDS011;6867;50.998;4.250;2022-08-01T03:23:07;16.50;;;9.95;;
13592;SDS011;6867;50.998;4.250;2022-08-01T03:25:38;16.90;;;11.05;;
13592;SDS011;6867;50.998;4.250;2022-08-01T03:28:07;21.83;;;12.05;;
13592;SDS011;6867;50.998;4.250;2022-08-01T03:30:36;17.05;;;10.82;;
13592;SDS011;6867;50.998;4.250;2022-08-01T03:33:04;19.65;;;10.30;;
13592;SDS011;6867;50.998;4.250;2022-08-01T03:35:33;15.75;;;9.93;;
13592;SDS011;6867;50.998;4.250;2022-08-01T03:38:05;20.33;;;11.02;;
13592;SDS011;6867;50.998;4.250;2022-08-01T03:40:35;14.52;;;10.10;;
13592;SDS011;6867;50.998;4.250;2022-08-01T03:43:07;12.30;;;9.02;;
13592;SDS011;6867;50.998;4.250;2022-08-01T03:45:38;16.30;;;10.98;;
13592;SDS011;6867;50.998;4.250;2022-08-01T03:48:09;15.52;;;9.57;;
13592;SDS011;6867;50.998;4.250;2022-08-01T03:50:39;16.45;;;9.68;;
13592;SDS011;6867;50.998;4.250;2022-08-01T03:53:10;16.17;;;10.88;;
13592;SDS011;6867;50.998;4.250;2022-08-01T03:55:39;15.40;;;10.00;;
13592;SDS011;6867;50.998;4.250;2022-08-01T03:58:08;17.48;;;11.73;;
13592;SDS011;6867;50.998;4.250;2022-08-01T04:00:36;17.65;;;12.05;;
13592;SDS011;6867;50.998;4.250;2022-08-01T04:03:04;18.02;;;11.30;;
13592;SDS011;6867;50.998;4.250;2022-08-01T04:05:32;17.42;;;11.20;;
13592;SDS011;6867;50.998;4.250;2022-08-01T04:08:00;19.30;;;11.95;;
13592;SDS011;6867;50.998;4.250;2022-08-01T04:10:29;18.70;;;10.70;;
13592;SDS011;6867;50.998;4.250;2022-08-01T04:12:56;19.70;;;12.23;;
13592;SDS011;6867;50.998;4.250;2022-08-01T04:15:22;16.65;;;11.13;;
13592;SDS011;6867;50.998;4.250;2022-08-01T04:17:49;19.27;;;11.10;;
13592;SDS011;6867;50.998;4.250;2022-08-01T04:20:16;19.60;;;11.35;;
13592;SDS011;6867;50.998;4.250;2022-08-01T04:22:43;19.75;;;11.90;;
13592;SDS011;6867;50.998;4.250;2022-08-01T04:25:11;16.85;;;10.90;;
13592;SDS011;6867;50.998;4.250;2022-08-01T04:27:45;18.30;;;10.38;;
13592;SDS011;6867;50.998;4.250;2022-08-01T04:30:14;15.82;;;9.65;;
13592;SDS011;6867;50.998;4.250;2022-08-01T04:32:43;18.67;;;11.20;;
13592;SDS011;6867;50.998;4.250;2022-08-01T04:35:12;16.17;;;11.13;;
13592;SDS011;6867;50.998;4.250;2022-08-01T04:37:42;15.68;;;10.50;;
13592;SDS011;6867;50.998;4.250;2022-08-01T04:40:13;17.40;;;10.60;;
13592;SDS011;6867;50.998;4.250;2022-08-01T04:42:43;15.05;;;9.85;;
13592;SDS011;6867;50.998;4.250;2022-08-01T04:45:10;15.30;;;9.52;;
13592;SDS011;6867;50.998;4.250;2022-08-01T04:47:38;13.68;;;10.23;;
13592;SDS011;6867;50.998;4.250;2022-08-01T04:50:06;16.67;;;10.43;;
13592;SDS011;6867;50.998;4.250;2022-08-01T04:52:35;13.57;;;9.25;;
13592;SDS011;6867;50.998;4.250;2022-08-01T04:55:02;17.20;;;8.65;;
13592;SDS011;6867;50.998;4.250;2022-08-01T04:57:31;15.45;;;8.13;;
13592;SDS011;6867;50.998;4.250;2022-08-01T04:59:59;13.10;;;7.50;;
13592;SDS011;6867;50.998;4.250;2022-08-01T05:02:27;15.13;;;9.13;;
13592;SDS011;6867;50.998;4.250;2022-08-01T05:04:54;14.75;;;9.15;;
13592;SDS011;6867;50.998;4.250;2022-08-01T05:07:21;13.68;;;7.85;;
13592;SDS011;6867;50.998;4.250;2022-08-01T05:09:48;10.98;;;6.85;;
13592;SDS011;6867;50.998;4.250;2022-08-01T05:12:15;11.60;;;7.28;;
13592;SDS011;6867;50.998;4.250;2022-08-01T05:14:42;8.77;;;6.82;;
13592;SDS011;6867;50.998;4.250;2022-08-01T05:17:11;12.85;;;6.97;;
13592;SDS011;6867;50.998;4.250;2022-08-01T05:19:38;11.98;;;6.28;;
13592;SDS011;6867;50.998;4.250;2022-08-01T05:22:08;8.70;;;5.43;;
13592;SDS011;6867;50.998;4.250;2022-08-01T05:24:37;10.70;;;6.13;;
13592;SDS011;6867;50.998;4.250;2022-08-01T05:27:05;7.95;;;5.47;;
13592;SDS011;6867;50.998;4.250;2022-08-01T05:29:32;8.85;;;5.25;;
13592;SDS011;6867;50.998;4.250;2022-08-01T05:32:00;7.32;;;4.97;;
13592;SDS011;6867;50.998;4.250;2022-08-01T05:34:28;9.32;;;5.72;;
13592;SDS011;6867;50.998;4.250;2022-08-01T05:36:55;6.05;;;4.63;;
13592;SDS011;6867;50.998;4.250;2022-08-01T05:39:21;5.57;;;4.47;;
13592;SDS011;6867;50.998;4.250;2022-08-01T05:41:48;5.43;;;4.07;;
13592;SDS011;6867;50.998;4.250;2022-08-01T05:44:15;5.55;;;4.15;;
13592;SDS011;6867;50.998;4.250;2022-08-01T05:46:41;10.35;;;4.57;;
13592;SDS011;6867;50.998;4.250;2022-08-01T05:49:08;6.80;;;4.00;;
13592;SDS011;6867;50.998;4.250;2022-08-01T05:51:36;4.88;;;3.95;;
13592;SDS011;6867;50.998;4.250;2022-08-01T05:54:03;5.15;;;4.05;;
13592;SDS011;6867;50.998;4.250;2022-08-01T05:56:30;5.20;;;3.72;;
13592;SDS011;6867;50.998;4.250;2022-08-01T05:58:57;5.75;;;4.25;;
13592;SDS011;6867;50.998;4.250;2022-08-01T06:01:23;6.65;;;3.88;;
13592;SDS011;6867;50.998;4.250;2022-08-01T06:03:50;4.20;;;3.80;;
13592;SDS011;6867;50.998;4.250;2022-08-01T06:06:17;5.55;;;3.30;;
13592;SDS011;6867;50.998;4.250;2022-08-01T06:08:45;6.15;;;4.13;;
13592;SDS011;6867;50.998;4.250;2022-08-01T06:11:12;6.95;;;4.00;;
13592;SDS011;6867;50.998;4.250;2022-08-01T06:13:39;4.43;;;3.42;;
13592;SDS011;6867;50.998;4.250;2022-08-01T06:16:06;5.45;;;3.67;;
13592;SDS011;6867;50.998;4.250;2022-08-01T06:18:33;7.40;;;3.40;;
13592;SDS011;6867;50.998;4.250;2022-08-01T06:21:00;3.47;;;3.00;;
13592;SDS011;6867;50.998;4.250;2022-08-01T06:23:26;3.90;;;3.30;;
13592;SDS011;6867;50.998;4.250;2022-08-01T06:25:54;3.13;;;2.83;;
13592;SDS011;6867;50.998;4.250;2022-08-01T06:28:21;2.92;;;2.42;;
13592;SDS011;6867;50.998;4.250;2022-08-01T06:30:48;3.50;;;2.35;;
13592;SDS011;6867;50.998;4.250;2022-08-01T06:33:15;4.15;;;2.38;;
13592;SDS011;6867;50.998;4.250;2022-08-01T06:35:41;2.28;;;1.60;;
13592;SDS011;6867;50.998;4.250;2022-08-01T06:38:08;2.70;;;1.75;;
13592;SDS011;6867;50.998;4.250;2022-08-01T06:40:35;4.25;;;1.55;;
13592;SDS011;6867;50.998;4.250;2022-08-01T06:43:04;2.75;;;1.88;;
13592;SDS011;6867;50.998;4.250;2022-08-01T06:45:31;3.55;;;1.73;;
13592;SDS011;6867;50.998;4.250;2022-08-01T06:47:58;2.33;;;2.03;;
13592;SDS011;6867;50.998;4.250;2022-08-01T06:50:24;2.63;;;1.63;;
13592;SDS011;6867;50.998;4.250;2022-08-01T06:52:51;1.90;;;1.70;;
13592;SDS011;6867;50.998;4.250;2022-08-01T06:55:18;2.50;;;2.00;;
13592;SDS011;6867;50.998;4.250;2022-08-01T06:57:45;3.38;;;2.08;;
13592;SDS011;6867;50.998;4.250;2022-08-01T07:00:16;2.90;;;1.67;;
13592;SDS011;6867;50.998;4.250;2022-08-01T07:02:47;3.28;;;1.88;;
13592;SDS011;6867;50.998;4.250;2022-08-01T07:05:14;3.20;;;2.20;;
13592;SDS011;6867;50.998;4.250;2022-08-01T07:07:40;3.22;;;2.03;;
13592;SDS011;6867;50.998;4.250;2022-08-01T07:10:07;2.10;;;1.77;;
13592;SDS011;6867;50.998;4.250;2022-08-01T07:12:35;3.67;;;1.80;;
13592;SDS011;6867;50.998;4.250;2022-08-01T07:15:03;2.90;;;1.77;;
13592;SDS011;6867;50.998;4.250;2022-08-01T07:17:32;3.63;;;1.48;;
13592;SDS011;6867;50.998;4.250;2022-08-01T07:20:03;1.98;;;1.40;;
13592;SDS011;6867;50.998;4.250;2022-08-01T07:22:31;2.40;;;1.85;;
13592;SDS011;6867;50.998;4.250;2022-08-01T07:24:57;4.53;;;1.70;;
13592;SDS011;6867;50.998;4.250;2022-08-01T07:27:24;2.50;;;1.95;;
13592;SDS011;6867;50.998;4.250;2022-08-01T07:29:51;2.80;;;1.73;;
13592;SDS011;6867;50.998;4.250;2022-08-01T07:32:17;1.50;;;1.40;;
13592;SDS011;6867;50.998;4.250;2022-08-01T07:34:45;2.28;;;1.60;;
13592;SDS011;6867;50.998;4.250;2022-08-01T07:37:12;1.52;;;1.30;;
13592;SDS011;6867;50.998;4.250;2022-08-01T07:39:39;1.52;;;1.20;;
13592;SDS011;6867;50.998;4.250;2022-08-01T07:42:06;2.50;;;1.38;;
13592;SDS011;6867;50.998;4.250;2022-08-01T07:44:33;1.13;;;1.02;;
13592;SDS011;6867;50.998;4.250;2022-08-01T07:47:00;2.45;;;1.10;;
13592;SDS011;6867;50.998;4.250;2022-08-01T07:49:27;4.85;;;1.10;;
13592;SDS011;6867;50.998;4.250;2022-08-01T07:51:55;1.20;;;1.10;;
13592;SDS011;6867;50.998;4.250;2022-08-01T07:54:21;1.00;;;0.90;;
13592;SDS011;6867;50.998;4.250;2022-08-01T07:56:52;1.00;;;0.88;;
13592;SDS011;6867;50.998;4.250;2022-08-01T07:59:19;3.35;;;0.88;;
13592;SDS011;6867;50.998;4.250;2022-08-01T08:01:48;1.63;;;0.93;;
13592;SDS011;6867;50.998;4.250;2022-08-01T08:04:15;0.80;;;0.75;;
13592;SDS011;6867;50.998;4.250;2022-08-01T08:06:42;0.98;;;0.88;;
13592;SDS011;6867;50.998;4.250;2022-08-01T08:09:11;1.38;;;0.80;;
13592;SDS011;6867;50.998;4.250;2022-08-01T08:11:38;1.15;;;0.80;;
13592;SDS011;6867;50.998;4.250;2022-08-01T08:14:04;0.77;;;0.70;;
13592;SDS011;6867;50.998;4.250;2022-08-01T08:16:31;1.38;;;0.95;;
13592;SDS011;6867;50.998;4.250;2022-08-01T08:18:57;1.38;;;0.90;;
13592;SDS011;6867;50.998;4.250;2022-08-01T08:21:24;1.23;;;0.80;;
13592;SDS011;6867;50.998;4.250;2022-08-01T08:23:51;0.57;;;0.52;;
13592;SDS011;6867;50.998;4.250;2022-08-01T08:26:42;0.65;;;0.60;;
13592;SDS011;6867;50.998;4.250;2022-08-01T08:29:08;0.60;;;0.60;;
13592;SDS011;6867;50.998;4.250;2022-08-01T08:31:35;0.60;;;0.60;;
13592;SDS011;6867;50.998;4.250;2022-08-01T08:34:02;1.10;;;0.80;;
13592;SDS011;6867;50.998;4.250;2022-08-01T08:36:28;0.85;;;0.60;;
13592;SDS011;6867;50.998;4.250;2022-08-01T08:38:55;0.50;;;0.50;;
13592;SDS011;6867;50.998;4.250;2022-08-01T08:41:22;1.40;;;0.70;;
13592;SDS011;6867;50.998;4.250;2022-08-01T08:43:50;0.80;;;0.80;;
13592;SDS011;6867;50.998;4.250;2022-08-01T08:46:17;0.63;;;0.55;;
13592;SDS011;6867;50.998;4.250;2022-08-01T08:48:45;1.95;;;0.65;;
13592;SDS011;6867;50.998;4.250;2022-08-01T08:51:13;0.70;;;0.70;;
13592;SDS011;6867;50.998;4.250;2022-08-01T08:53:44;0.80;;;0.70;;
13592;SDS011;6867;50.998;4.250;2022-08-01T08:56:13;0.90;;;0.50;;
13592;SDS011;6867;50.998;4.250;2022-08-01T08:58:41;0.43;;;0.43;;
13592;SDS011;6867;50.998;4.250;2022-08-01T09:01:12;0.70;;;0.60;;
13592;SDS011;6867;50.998;4.250;2022-08-01T09:03:39;1.63;;;0.82;;
13592;SDS011;6867;50.998;4.250;2022-08-01T09:06:06;1.73;;;0.60;;
13592;SDS011;6867;50.998;4.250;2022-08-01T09:08:33;1.05;;;0.60;;
13592;SDS011;6867;50.998;4.250;2022-08-01T09:11:00;0.93;;;0.52;;
13592;SDS011;6867;50.998;4.250;2022-08-01T09:13:26;0.40;;;0.40;;
13592;SDS011;6867;50.998;4.250;2022-08-01T09:15:53;2.30;;;0.70;;
13592;SDS011;6867;50.998;4.250;2022-08-01T09:18:28;1.88;;;0.68;;
13592;SDS011;6867;50.998;4.250;2022-08-01T09:21:08;2.33;;;0.80;;
13592;SDS011;6867;50.998;4.250;2022-08-01T09:23:37;2.67;;;0.95;;
13592;SDS011;6867;50.998;4.250;2022-08-01T09:26:07;1.13;;;0.70;;
13592;SDS011;6867;50.998;4.250;2022-08-01T09:28:35;1.38;;;0.70;;
13592;SDS011;6867;50.998;4.250;2022-08-01T09:31:06;0.90;;;0.70;;
13592;SDS011;6867;50.998;4.250;2022-08-01T09:33:49;0.73;;;0.70;;
13592;SDS011;6867;50.998;4.250;2022-08-01T09:36:17;2.10;;;0.70;;
13592;SDS011;6867;50.998;4.250;2022-08-01T09:38:44;0.73;;;0.57;;
13592;SDS011;6867;50.998;4.250;2022-08-01T09:41:11;1.17;;;0.70;;
13592;SDS011;6867;50.998;4.250;2022-08-01T09:43:38;0.85;;;0.63;;
13592;SDS011;6867;50.998;4.250;2022-08-01T09:46:08;1.83;;;0.65;;
13592;SDS011;6867;50.998;4.250;2022-08-01T09:48:36;1.75;;;0.90;;
13592;SDS011;6867;50.998;4.250;2022-08-01T09:51:05;2.15;;;0.70;;
13592;SDS011;6867;50.998;4.250;2022-08-01T09:53:43;1.40;;;0.60;;
13592;SDS011;6867;50.998;4.250;2022-08-01T09:56:12;0.75;;;0.60;;
13592;SDS011;6867;50.998;4.250;2022-08-01T09:58:49;1.33;;;0.70;;
13592;SDS011;6867;50.998;4.250;2022-08-01T10:01:17;0.73;;;0.70;;
13592;SDS011;6867;50.998;4.250;2022-08-01T10:03:47;1.33;;;0.85;;
13592;SDS011;6867;50.998;4.250;2022-08-01T10:06:38;0.70;;;0.70;;
13592;SDS011;6867;50.998;4.250;2022-08-01T10:09:07;0.63;;;0.60;;
13592;SDS011;6867;50.998;4.250;2022-08-01T10:11:34;1.10;;;0.75;;
13592;SDS011;6867;50.998;4.250;2022-08-01T10:14:04;2.05;;;0.70;;
13592;SDS011;6867;50.998;4.250;2022-08-01T10:16:32;4.38;;;1.00;;
13592;SDS011;6867;50.998;4.250;2022-08-01T10:19:00;1.20;;;0.80;;
13592;SDS011;6867;50.998;4.250;2022-08-01T10:21:29;1.30;;;0.85;;
13592;SDS011;6867;50.998;4.250;2022-08-01T10:24:00;0.98;;;0.70;;
13592;SDS011;6867;50.998;4.250;2022-08-01T10:26:28;0.82;;;0.82;;
13592;SDS011;6867;50.998;4.250;2022-08-01T10:28:58;1.35;;;0.90;;
13592;SDS011;6867;50.998;4.250;2022-08-01T10:31:25;1.20;;;0.93;;
13592;SDS011;6867;50.998;4.250;2022-08-01T10:33:57;1.30;;;0.80;;
13592;SDS011;6867;50.998;4.250;2022-08-01T10:36:23;4.05;;;1.05;;
13592;SDS011;6867;50.998;4.250;2022-08-01T10:38:51;1.35;;;0.98;;
13592;SDS011;6867;50.998;4.250;2022-08-01T10:41:21;1.73;;;1.08;;
13592;SDS011;6867;50.998;4.250;2022-08-01T10:43:48;3.15;;;1.00;;
13592;SDS011;6867;50.998;4.250;2022-08-01T10:46:17;2.33;;;0.98;;
13592;SDS011;6867;50.998;4.250;2022-08-01T10:48:46;4.55;;;1.10;;
13592;SDS011;6867;50.998;4.250;2022-08-01T10:51:20;1.27;;;0.90;;
13592;SDS011;6867;50.998;4.250;2022-08-01T10:53:48;1.27;;;0.70;;
13592;SDS011;6867;50.998;4.250;2022-08-01T10:56:17;1.48;;;1.00;;
13592;SDS011;6867;50.998;4.250;2022-08-01T10:58:46;2.00;;;0.98;;
13592;SDS011;6867;50.998;4.250;2022-08-01T11:01:17;1.55;;;0.98;;
13592;SDS011;6867;50.998;4.250;2022-08-01T11:03:56;1.00;;;0.90;;
13592;SDS011;6867;50.998;4.250;2022-08-01T11:06:33;1.58;;;1.00;;
13592;SDS011;6867;50.998;4.250;2022-08-01T11:09:15;1.23;;;0.73;;
13592;SDS011;6867;50.998;4.250;2022-08-01T11:11:57;1.38;;;1.10;;
13592;SDS011;6867;50.998;4.250;2022-08-01T11:14:27;1.60;;;0.90;;
13592;SDS011;6867;50.998;4.250;2022-08-01T11:16:54;1.30;;;0.90;;
13592;SDS011;6867;50.998;4.250;2022-08-01T11:19:21;1.33;;;0.82;;
13592;SDS011;6867;50.998;4.250;2022-08-01T11:27:25;2.55;;;1.30;;
13592;SDS011;6867;50.998;4.250;2022-08-01T11:32:52;1.27;;;0.80;;
13592;SDS011;6867;50.998;4.250;2022-08-01T11:35:21;1.52;;;1.10;;
13592;SDS011;6867;50.998;4.250;2022-08-01T11:37:51;2.22;;;0.90;;
13592;SDS011;6867;50.998;4.250;2022-08-01T11:40:21;2.47;;;0.90;;
13592;SDS011;6867;50.998;4.250;2022-08-01T11:42:50;3.67;;;1.00;;
13592;SDS011;6867;50.998;4.250;2022-08-01T11:45:47;2.65;;;0.90;;
13592;SDS011;6867;50.998;4.250;2022-08-01T11:48:17;1.42;;;1.00;;
13592;SDS011;6867;50.998;4.250;2022-08-01T11:50:45;3.28;;;0.90;;
13592;SDS011;6867;50.998;4.250;2022-08-01T11:53:12;2.45;;;1.08;;
13592;SDS011;6867;50.998;4.250;2022-08-01T11:55:43;2.95;;;1.35;;
13592;SDS011;6867;50.998;4.250;2022-08-01T11:58:13;1.50;;;0.90;;
13592;SDS011;6867;50.998;4.250;2022-08-01T12:00:40;0.90;;;0.90;;
13592;SDS011;6867;50.998;4.250;2022-08-01T12:03:22;2.13;;;1.20;;
13592;SDS011;6867;50.998;4.250;2022-08-01T12:05:50;2.40;;;1.02;;
13592;SDS011;6867;50.998;4.250;2022-08-01T12:08:23;1.80;;;1.00;;
13592;SDS011;6867;50.998;4.250;2022-08-01T12:10:51;1.33;;;1.05;;
13592;SDS011;6867;50.998;4.250;2022-08-01T12:13:18;3.22;;;0.80;;
13592;SDS011;6867;50.998;4.250;2022-08-01T12:15:45;1.00;;;0.90;;
13592;SDS011;6867;50.998;4.250;2022-08-01T12:18:12;1.35;;;0.90;;
13592;SDS011;6867;50.998;4.250;2022-08-01T12:20:41;2.08;;;1.05;;
13592;SDS011;6867;50.998;4.250;2022-08-01T12:23:10;2.97;;;1.30;;
13592;SDS011;6867;50.998;4.250;2022-08-01T12:25:37;1.95;;;0.80;;
13592;SDS011;6867;50.998;4.250;2022-08-01T12:28:05;2.33;;;0.90;;
13592;SDS011;6867;50.998;4.250;2022-08-01T12:30:35;1.23;;;1.10;;
13592;SDS011;6867;50.998;4.250;2022-08-01T12:33:04;1.40;;;0.75;;
13592;SDS011;6867;50.998;4.250;2022-08-01T12:35:33;1.23;;;1.05;;
13592;SDS011;6867;50.998;4.250;2022-08-01T12:38:03;0.93;;;0.65;;
13592;SDS011;6867;50.998;4.250;2022-08-01T12:40:32;0.90;;;0.80;;
13592;SDS011;6867;50.998;4.250;2022-08-01T12:43:00;1.55;;;0.90;;
13592;SDS011;6867;50.998;4.250;2022-08-01T12:45:28;3.03;;;0.90;;
13592;SDS011;6867;50.998;4.250;2022-08-01T12:47:59;3.60;;;0.85;;
13592;SDS011;6867;50.998;4.250;2022-08-01T12:50:28;1.33;;;0.85;;
13592;SDS011;6867;50.998;4.250;2022-08-01T12:52:56;1.42;;;0.90;;
13592;SDS011;6867;50.998;4.250;2022-08-01T12:55:25;1.20;;;0.93;;
13592;SDS011;6867;50.998;4.250;2022-08-01T12:58:03;1.02;;;0.75;;
13592;SDS011;6867;50.998;4.250;2022-08-01T13:00:30;2.25;;;1.17;;
13592;SDS011;6867;50.998;4.250;2022-08-01T13:03:02;3.75;;;0.80;;
13592;SDS011;6867;50.998;4.250;2022-08-01T13:05:40;1.80;;;1.13;;
13592;SDS011;6867;50.998;4.250;2022-08-01T13:08:09;2.03;;;0.98;;
13592;SDS011;6867;50.998;4.250;2022-08-01T13:10:38;2.58;;;1.00;;
13592;SDS011;6867;50.998;4.250;2022-08-01T13:13:06;1.67;;;0.93;;
13592;SDS011;6867;50.998;4.250;2022-08-01T13:15:34;1.08;;;0.95;;
13592;SDS011;6867;50.998;4.250;2022-08-01T13:20:49;0.85;;;0.80;;
13592;SDS011;6867;50.998;4.250;2022-08-01T13:23:16;0.98;;;0.70;;
13592;SDS011;6867;50.998;4.250;2022-08-01T13:25:52;1.67;;;1.00;;
13592;SDS011;6867;50.998;4.250;2022-08-01T13:28:21;0.77;;;0.77;;
13592;SDS011;6867;50.998;4.250;2022-08-01T13:30:56;1.05;;;0.90;;
13592;SDS011;6867;50.998;4.250;2022-08-01T13:33:25;1.38;;;0.75;;
13592;SDS011;6867;50.998;4.250;2022-08-01T13:35:54;1.45;;;0.75;;
13592;SDS011;6867;50.998;4.250;2022-08-01T13:38:21;2.35;;;1.00;;
13592;SDS011;6867;50.998;4.250;2022-08-01T13:41:10;1.05;;;0.82;;
13592;SDS011;6867;50.998;4.250;2022-08-01T13:43:37;1.67;;;0.90;;
13592;SDS011;6867;50.998;4.250;2022-08-01T13:46:05;2.60;;;1.05;;
13592;SDS011;6867;50.998;4.250;2022-08-01T13:48:32;0.90;;;0.80;;
13592;SDS011;6867;50.998;4.250;2022-08-01T13:50:59;1.13;;;0.80;;
13592;SDS011;6867;50.998;4.250;2022-08-01T13:53:26;1.10;;;0.70;;
13592;SDS011;6867;50.998;4.250;2022-08-01T13:55:53;1.40;;;0.90;;
13592;SDS011;6867;50.998;4.250;2022-08-01T13:58:21;2.00;;;0.90;;
13592;SDS011;6867;50.998;4.250;2022-08-01T14:00:48;1.33;;;0.70;;
13592;SDS011;6867;50.998;4.250;2022-08-01T14:03:14;1.10;;;1.00;;
13592;SDS011;6867;50.998;4.250;2022-08-01T14:05:42;0.63;;;0.63;;
13592;SDS011;6867;50.998;4.250;2022-08-01T14:08:09;1.08;;;0.80;;
13592;SDS011;6867;50.998;4.250;2022-08-01T14:10:36;2.67;;;0.80;;
13592;SDS011;6867;50.998;4.250;2022-08-01T14:13:02;1.10;;;0.65;;
13592;SDS011;6867;50.998;4.250;2022-08-01T14:15:31;1.98;;;0.80;;
13592;SDS011;6867;50.998;4.250;2022-08-01T14:17:58;1.10;;;1.00;;
13592;SDS011;6867;50.998;4.250;2022-08-01T14:20:25;1.08;;;0.73;;
13592;SDS011;6867;50.998;4.250;2022-08-01T14:22:52;2.65;;;1.10;;
13592;SDS011;6867;50.998;4.250;2022-08-01T14:25:19;2.47;;;0.70;;
13592;SDS011;6867;50.998;4.250;2022-08-01T14:27:45;1.92;;;0.82;;
13592;SDS011;6867;50.998;4.250;2022-08-01T14:30:13;2.15;;;0.60;;
13592;SDS011;6867;50.998;4.250;2022-08-01T14:32:41;1.55;;;0.73;;
13592;SDS011;6867;50.998;4.250;2022-08-01T14:35:07;0.82;;;0.82;;
13592;SDS011;6867;50.998;4.250;2022-08-01T14:37:35;1.75;;;0.85;;
13592;SDS011;6867;50.998;4.250;2022-08-01T14:40:01;1.20;;;0.70;;
13592;SDS011;6867;50.998;4.250;2022-08-01T14:42:32;1.23;;;0.80;;
13592;SDS011;6867;50.998;4.250;2022-08-01T14:44:59;0.82;;;0.80;;
13592;SDS011;6867;50.998;4.250;2022-08-01T14:47:26;1.48;;;0.90;;
13592;SDS011;6867;50.998;4.250;2022-08-01T14:49:54;1.85;;;0.90;;
13592;SDS011;6867;50.998;4.250;2022-08-01T14:52:21;1.08;;;0.90;;
13592;SDS011;6867;50.998;4.250;2022-08-01T14:54:47;1.02;;;0.82;;
13592;SDS011;6867;50.998;4.250;2022-08-01T14:57:14;1.08;;;0.70;;
13592;SDS011;6867;50.998;4.250;2022-08-01T14:59:43;1.00;;;0.95;;
13592;SDS011;6867;50.998;4.250;2022-08-01T15:02:10;1.77;;;0.82;;
13592;SDS011;6867;50.998;4.250;2022-08-01T15:04:38;1.67;;;0.85;;
13592;SDS011;6867;50.998;4.250;2022-08-01T15:07:06;1.27;;;0.90;;
13592;SDS011;6867;50.998;4.250;2022-08-01T15:09:33;0.77;;;0.75;;
13592;SDS011;6867;50.998;4.250;2022-08-01T15:12:00;2.35;;;0.80;;
13592;SDS011;6867;50.998;4.250;2022-08-01T15:14:26;1.92;;;1.00;;
13592;SDS011;6867;50.998;4.250;2022-08-01T15:17:11;1.10;;;0.88;;